Time;durP1;ratioP1;P1;durP2;ratioP2;P2;SDS_P1;SDS_P2;PMS_P1;PMS_P2;Temp;Humidity;BMP_temperature;BMP_pressure;BME280_temperature;BME280_humidity;BME280_pressure;Samples;Min_cycle;Max_cycle;Signal;HPM_P1;HPM_P2
2023/08/21 00:02:33;;;;;;;16.57;9.90;;;;;;;21.45;72.05;100592.38;1696247;81;21226;-56
2023/08/21 00:08:08;;;;;;;13.72;10.18;;;;;;;21.45;72.30;100586.81;1716879;80;21468;-55
2023/08/21 00:13:47;;;;;;;13.32;9.60;;;;;;;21.46;72.56;100584.84;1723090;80;21270;-56
2023/08/21 00:19:22;;;;;;;13.20;9.33;;;;;;;21.43;72.70;100583.41;1710448;79;21376;-54
2023/08/21 00:24:57;;;;;;;15.25;9.33;;;;;;;21.43;72.92;100586.73;1724299;81;21374;-55
2023/08/21 00:30:32;;;;;;;16.35;10.25;;;;;;;21.42;72.99;100586.44;1719836;80;21225;-55
2023/08/21 00:38:38;;;;;;;21.68;11.05;;;;;;;21.32;72.96;100582.86;1666642;80;21253;-56
2023/08/21 00:44:11;;;;;;;20.80;11.00;;;;;;;21.26;73.03;100590.79;1711021;80;21885;-56
2023/08/21 00:47:19;;;;;;;22.10;11.97;;;;;;;21.24;73.07;100581.81;1710497;81;21774;-55
2023/08/21 00:55:22;;;;;;;21.17;12.18;;;;;;;21.18;73.23;100577.22;1718609;80;21404;-55
2023/08/21 00:58:28;;;;;;;15.20;10.70;;;;;;;21.16;73.27;100571.03;1717808;80;21474;-55
2023/08/21 01:04:05;;;;;;;16.95;10.03;;;;;;;21.10;73.32;100579.48;1718254;80;21425;-55
2023/08/21 01:09:54;;;;;;;16.87;10.28;;;;;;;21.04;73.47;100592.41;1692594;81;21868;-55
2023/08/21 01:13:26;;;;;;;17.42;10.48;;;;;;;21.05;73.65;100591.34;1711217;81;21277;-56
2023/08/21 01:16:33;;;;;;;15.85;10.32;;;;;;;21.05;73.86;100580.21;1690355;80;21394;-55
2023/08/21 01:19:50;;;;;;;14.68;9.90;;;;;;;21.06;74.07;100582.46;1685212;79;21243;-54
2023/08/21 01:22:57;;;;;;;16.95;10.03;;;;;;;21.05;74.13;100582.99;1679989;80;21299;-55
2023/08/21 01:26:03;;;;;;;18.07;10.65;;;;;;;21.03;74.19;100583.77;1717381;81;21248;-55
2023/08/21 01:29:10;;;;;;;16.52;10.53;;;;;;;21.00;74.21;100578.69;1724611;78;21389;-55
2023/08/21 01:32:26;;;;;;;14.58;9.63;;;;;;;20.98;74.28;100576.67;1721030;81;21241;-55
2023/08/21 01:40:32;;;;;;;14.70;9.85;;;;;;;20.96;74.48;100573.80;1718568;80;21386;-55
2023/08/21 01:43:38;;;;;;;14.45;9.55;;;;;;;20.94;74.53;100572.66;1712377;79;21274;-55
2023/08/21 01:46:43;;;;;;;15.30;9.93;;;;;;;20.93;74.60;100569.54;1714963;79;21391;-55
2023/08/21 01:52:18;;;;;;;14.75;10.38;;;;;;;20.91;74.72;100572.27;1678056;80;21275;-55
2023/08/21 01:57:53;;;;;;;17.87;9.83;;;;;;;20.89;74.83;100570.27;1687175;82;21394;-55
2023/08/21 02:03:27;;;;;;;12.90;9.08;;;;;;;20.87;75.00;100571.89;1726500;79;21486;-55
2023/08/21 02:06:35;;;;;;;20.00;11.65;;;;;;;20.87;74.99;100580.81;1718015;80;21441;-55
2023/08/21 02:14:39;;;;;;;16.60;10.98;;;;;;;20.74;75.12;100563.21;1716624;79;21382;-56
2023/08/21 02:20:17;;;;;;;17.75;10.00;;;;;;;20.69;75.14;100560.28;1709651;78;21401;-56
2023/08/21 02:25:52;;;;;;;18.48;10.32;;;;;;;20.62;75.14;100574.86;1711081;80;21804;-55
2023/08/21 02:31:27;;;;;;;17.70;10.80;;;;;;;20.59;75.30;100572.55;1718399;79;21393;-56
2023/08/21 02:39:34;;;;;;;17.15;10.93;;;;;;;20.55;75.48;100562.13;1677160;80;21338;-55
2023/08/21 02:45:09;;;;;;;17.75;10.90;;;;;;;20.53;75.67;100576.81;1691157;82;21371;-56
2023/08/21 02:53:17;;;;;;;16.40;9.68;;;;;;;20.48;75.75;100566.40;1713692;80;21278;-56
2023/08/21 03:01:24;;;;;;;17.37;9.73;;;;;;;20.44;75.94;100579.59;1719831;80;21254;-55
2023/08/21 03:07:01;;;;;;;17.20;10.28;;;;;;;20.43;76.13;100575.13;1721092;80;21482;-56
2023/08/21 03:12:36;;;;;;;16.35;10.80;;;;;;;20.45;76.21;100584.09;1727717;79;21409;-56
2023/08/21 03:18:13;;;;;;;14.53;10.25;;;;;;;20.46;76.23;100580.22;1723930;80;21312;-56
2023/08/21 03:23:48;;;;;;;15.75;11.08;;;;;;;20.51;76.36;100577.58;1693741;79;21447;-56
2023/08/21 03:29:24;;;;;;;15.45;10.28;;;;;;;20.58;76.52;100579.18;1718348;80;21700;-57
2023/08/21 03:34:58;;;;;;;16.55;10.35;;;;;;;20.65;76.76;100575.77;1701552;81;21291;-56
2023/08/21 03:40:34;;;;;;;18.90;10.63;;;;;;;20.78;76.92;100569.16;1716814;80;21781;-54
2023/08/21 03:46:11;;;;;;;17.05;10.58;;;;;;;20.87;77.11;100562.15;1715321;80;21275;-56
2023/08/21 03:51:49;;;;;;;19.07;10.53;;;;;;;21.02;77.31;100572.34;1713764;80;21378;-55
2023/08/21 03:57:24;;;;;;;14.30;10.13;;;;;;;21.15;77.45;100557.34;1712879;80;21220;-55
2023/08/21 04:05:33;;;;;;;20.50;11.45;;;;;;;21.35;77.64;100560.09;1709390;80;21234;-55
2023/08/21 04:11:09;;;;;;;17.23;12.18;;;;;;;21.49;77.72;100557.36;1713384;81;22146;-56
2023/08/21 04:14:14;;;;;;;20.68;12.07;;;;;;;21.54;77.77;100563.06;1665511;81;21313;-56
2023/08/21 04:20:05;;;;;;;18.35;12.05;;;;;;;21.70;77.90;100569.30;1717951;79;21409;-55
2023/08/21 04:23:11;;;;;;;21.15;12.15;;;;;;;21.76;77.91;100573.92;1668199;79;21795;-55
2023/08/21 04:26:17;;;;;;;22.48;12.43;;;;;;;21.82;77.93;100574.33;1685947;79;21243;-56
2023/08/21 04:29:24;;;;;;;21.90;13.48;;;;;;;21.91;77.94;100579.00;1716220;80;21839;-55
2023/08/21 04:35:00;;;;;;;20.27;13.45;;;;;;;22.03;77.91;100582.59;1716929;80;21900;-54
2023/08/21 04:40:37;;;;;;;17.62;12.65;;;;;;;22.13;77.97;100577.25;1718240;78;21225;-56
2023/08/21 04:46:12;;;;;;;27.37;17.02;;;;;;;22.30;78.09;100580.95;1705446;80;21228;-57
2023/08/21 04:51:48;;;;;;;30.23;18.85;;;;;;;22.46;78.13;100577.92;1706443;80;21805;-56
2023/08/21 04:57:23;;;;;;;25.43;17.92;;;;;;;22.61;78.20;100571.30;1695387;80;21877;-55
2023/08/21 05:03:00;;;;;;;22.02;15.08;;;;;;;22.80;78.33;100570.81;1693443;80;21253;-56
2023/08/21 05:08:37;;;;;;;22.73;17.02;;;;;;;23.00;78.45;100571.20;1677275;81;21844;-57
2023/08/21 05:14:12;;;;;;;20.45;14.38;;;;;;;23.24;78.46;100568.56;1682275;81;21225;-54
2023/08/21 05:19:48;;;;;;;18.32;13.53;;;;;;;23.50;78.47;100569.82;1700313;78;21227;-54
2023/08/21 05:22:47;;;;;;;23.47;14.13;;;;;;;23.61;78.46;100561.89;1694593;80;21304;-55
2023/08/21 05:28:25;;;;;;;19.20;14.45;;;;;;;23.93;78.52;100563.50;1668271;80;21295;-55
2023/08/21 05:36:34;;;;;;;16.67;13.70;;;;;;;24.32;78.51;100567.42;1656282;81;21304;-54
2023/08/21 05:42:10;;;;;;;21.40;14.40;;;;;;;24.65;78.53;100568.65;1683487;80;21289;-55
2023/08/21 05:47:45;;;;;;;18.35;13.83;;;;;;;24.91;78.41;100558.02;1713538;78;21232;-54
2023/08/21 05:53:21;;;;;;;20.90;14.93;;;;;;;25.09;78.26;100562.39;1709062;79;21291;-55
2023/08/21 05:56:26;;;;;;;24.05;15.23;;;;;;;25.14;78.23;100568.59;1716835;80;21244;-55
2023/08/21 06:04:32;;;;;;;22.37;16.75;;;;;;;25.42;78.31;100562.72;1679953;81;21904;-54
2023/08/21 06:10:08;;;;;;;31.75;19.82;;;;;;;25.67;78.38;100561.50;1693312;81;21774;-55
2023/08/21 06:15:45;;;;;;;18.90;14.45;;;;;;;25.98;78.31;100567.56;1688357;80;21583;-55
2023/08/21 06:18:50;;;;;;;24.05;18.00;;;;;;;26.11;78.25;100569.37;1688138;79;21231;-54
2023/08/21 06:24:24;;;;;;;12.23;10.70;;;;;;;26.46;78.19;100575.12;1674949;81;21236;-54
2023/08/21 06:27:31;;;;;;;12.20;9.15;;;;;;;26.61;78.09;100576.31;1702571;80;21227;-53
2023/08/21 06:30:29;;;;;;;16.23;9.38;;;;;;;26.77;77.92;100580.86;1690171;80;21221;-54
2023/08/21 06:33:35;;;;;;;12.88;10.35;;;;;;;26.96;77.76;100582.88;1696599;82;21274;-54
2023/08/21 06:39:10;;;;;;;12.82;10.48;;;;;;;27.33;77.22;100578.45;1708497;80;21219;-55
2023/08/21 06:47:17;;;;;;;14.33;9.28;;;;;;;27.71;76.69;100585.77;1672397;81;21222;-55
2023/08/21 06:55:24;;;;;;;15.20;9.38;;;;;;;27.99;76.01;100579.27;1655084;80;21291;-55
2023/08/21 07:01:01;;;;;;;11.73;9.70;;;;;;;28.05;75.47;100573.91;1704183;79;21310;-55
2023/08/21 07:06:38;;;;;;;13.20;8.60;;;;;;;28.06;74.95;100579.80;1717235;80;21679;-53
2023/08/21 07:12:13;;;;;;;13.43;8.43;;;;;;;27.99;74.42;100582.09;1703429;80;21241;-54
2023/08/21 07:15:12;;;;;;;14.75;9.40;;;;;;;27.95;74.21;100585.17;1700788;80;21213;-53
2023/08/21 07:20:49;;;;;;;12.35;8.70;;;;;;;27.82;73.61;100586.02;1692962;79;21225;-55
2023/08/21 07:26:25;;;;;;;13.45;8.70;;;;;;;27.78;73.46;100587.70;1690831;81;21783;-55
2023/08/21 07:31:59;;;;;;;21.45;9.05;;;;;;;27.80;73.23;100595.86;1708611;80;21224;-54
2023/08/21 07:35:04;;;;;;;9.75;7.92;;;;;;;27.79;73.12;100593.63;1649016;80;21403;-52
2023/08/21 07:40:39;;;;;;;12.05;9.23;;;;;;;27.77;72.62;100594.47;1672068;81;21869;-54
2023/08/21 07:48:45;;;;;;;12.73;10.23;;;;;;;27.78;72.15;100598.96;1661175;81;21275;-55
2023/08/21 07:51:50;;;;;;;16.45;10.32;;;;;;;27.81;72.09;100595.58;1659718;80;21678;-55
2023/08/21 07:57:22;;;;;;;18.12;9.75;;;;;;;27.83;71.63;100591.92;1702096;79;21311;-54
2023/08/21 08:00:28;;;;;;;16.85;9.33;;;;;;;27.84;71.47;100587.97;1687656;81;21275;-54
2023/08/21 08:06:03;;;;;;;11.43;9.43;;;;;;;27.88;71.19;100591.66;1652538;83;21253;-55
2023/08/21 08:11:39;;;;;;;11.43;10.23;;;;;;;27.97;70.83;100592.78;1653852;81;21551;-55
2023/08/21 08:17:16;;;;;;;13.25;10.13;;;;;;;27.97;70.31;100591.38;1694453;79;21272;-54
2023/08/21 08:22:51;;;;;;;20.55;11.90;;;;;;;27.94;69.92;100600.39;1680931;81;21325;-55
2023/08/21 08:32:44;;;;;;;16.42;10.32;;;;;;;27.96;69.38;100586.30;1839118;76;22815;-56
2023/08/21 08:35:51;;;;;;;16.35;10.68;;;;;;;27.96;69.30;100585.44;1799435;79;21323;-53
2023/08/21 08:38:57;;;;;;;15.28;11.12;;;;;;;28.00;69.09;100585.17;1761448;81;21245;-54
2023/08/21 08:42:08;;;;;;;13.58;10.03;;;;;;;27.98;68.95;100575.61;1767969;80;21324;-55
2023/08/21 08:45:15;;;;;;;13.65;9.78;;;;;;;28.01;68.87;100574.17;1757606;80;21342;-55
2023/08/21 08:48:21;;;;;;;12.60;10.18;;;;;;;28.09;68.87;100572.19;1758777;79;21753;-54
2023/08/21 08:51:25;;;;;;;16.57;10.20;;;;;;;28.19;68.77;100573.57;1766444;79;21174;-55
2023/08/21 08:54:33;;;;;;;13.93;10.08;;;;;;;28.29;68.65;100571.55;1756947;79;21216;-56
2023/08/21 08:57:38;;;;;;;17.62;10.03;;;;;;;28.37;68.42;100570.14;1764042;79;21213;-58
2023/08/21 09:00:45;;;;;;;10.08;9.08;;;;;;;28.37;68.31;100558.87;1758013;80;21185;-56
2023/08/21 09:03:51;;;;;;;16.93;9.88;;;;;;;28.46;68.13;100570.66;1744896;79;21180;-56
2023/08/21 09:06:57;;;;;;;11.30;10.08;;;;;;;28.54;68.02;100567.83;1730897;81;21200;-56
2023/08/21 09:10:03;;;;;;;14.87;9.43;;;;;;;28.65;67.72;100571.72;1747424;79;21158;-56
2023/08/21 09:13:09;;;;;;;13.62;9.50;;;;;;;28.65;67.72;100571.72;1748846;81;21737;-58
2023/08/21 09:16:18;;;;;;;11.78;9.63;;;;;;;28.76;67.49;100568.27;1743568;79;21904;-57
2023/08/21 09:19:28;;;;;;;11.35;9.35;;;;;;;28.86;67.28;100571.03;1756911;81;21181;-57
2023/08/21 09:22:34;;;;;;;11.95;9.43;;;;;;;28.95;67.08;100573.50;1751292;80;21908;-55
2023/08/21 09:25:50;;;;;;;11.70;9.40;;;;;;;29.00;66.87;100567.83;1742866;81;21346;-53
2023/08/21 09:28:53;;;;;;;13.68;9.13;;;;;;;28.96;66.40;100563.90;1763389;80;21360;-58
2023/08/21 09:31:59;;;;;;;13.25;9.43;;;;;;;28.93;66.20;100564.48;1763951;79;21188;-57
2023/08/21 09:35:06;;;;;;;16.80;9.15;;;;;;;28.99;66.13;100563.31;1723606;80;21425;-58
2023/08/21 09:38:14;;;;;;;11.40;8.98;;;;;;;29.09;65.97;100554.82;1737223;80;21236;-55
2023/08/21 09:41:20;;;;;;;14.25;8.33;;;;;;;29.19;65.79;100556.98;1747292;81;21374;-55
2023/08/21 09:44:27;;;;;;;10.80;8.38;;;;;;;29.23;65.51;100555.84;1748775;81;21675;-56
2023/08/21 09:47:35;;;;;;;12.03;9.10;;;;;;;29.25;65.16;100557.80;1763406;79;21488;-56
2023/08/21 09:50:42;;;;;;;12.18;8.68;;;;;;;29.28;65.00;100546.48;1737740;81;21994;-57
2023/08/21 09:53:49;;;;;;;11.25;8.33;;;;;;;29.37;64.95;100556.84;1762321;81;21279;-56
2023/08/21 09:56:55;;;;;;;12.90;8.05;;;;;;;29.44;64.62;100557.36;1743498;81;21772;-55
2023/08/21 10:00:05;;;;;;;13.30;7.87;;;;;;;29.48;64.30;100549.97;1761761;80;22049;-55
2023/08/21 10:03:15;;;;;;;12.45;8.03;;;;;;;29.54;64.08;100550.78;1757469;81;21817;-56
2023/08/21 10:06:24;;;;;;;8.65;7.62;;;;;;;29.56;63.73;100542.87;1750487;80;21185;-50
2023/08/21 10:09:31;;;;;;;10.00;7.75;;;;;;;29.60;63.50;100544.80;1749237;79;21175;-51
2023/08/21 10:12:38;;;;;;;10.03;7.33;;;;;;;29.65;63.27;100546.19;1756524;80;21166;-49
2023/08/21 10:15:44;;;;;;;8.33;7.40;;;;;;;29.69;63.01;100550.09;1754214;81;21300;-50
2023/08/21 10:18:51;;;;;;;8.73;7.20;;;;;;;29.71;62.71;100539.91;1756701;79;21205;-49
2023/08/21 10:21:58;;;;;;;9.35;7.72;;;;;;;29.77;62.40;100537.30;1788857;77;21280;-50
2023/08/21 10:25:06;;;;;;;12.37;8.30;;;;;;;29.85;62.20;100543.15;1778040;79;21549;-49
2023/08/21 10:28:14;;;;;;;8.43;7.53;;;;;;;29.92;61.92;100533.73;1772186;79;21773;-48
2023/08/21 10:31:48;;;;;;;15.70;8.20;;;;;;;29.96;61.61;100534.84;1762260;80;21184;-48
2023/08/21 10:34:57;;;;;;;12.68;8.08;;;;;;;30.02;61.41;100542.10;1773897;79;21251;-47
2023/08/21 10:38:24;;;;;;;8.58;7.35;;;;;;;30.04;61.06;100529.94;1750515;81;21753;-48
2023/08/21 10:41:36;;;;;;;9.53;7.78;;;;;;;30.10;60.87;100527.88;1793133;79;21454;-49
2023/08/21 10:44:59;;;;;;;11.25;7.78;;;;;;;30.24;60.65;100531.13;1782339;79;21331;-48
2023/08/21 10:48:06;;;;;;;7.55;6.78;;;;;;;30.37;60.31;100534.64;1773169;79;21255;-47
2023/08/21 10:51:15;;;;;;;11.20;7.80;;;;;;;30.41;59.94;100534.88;1773717;79;21877;-48
2023/08/21 10:54:21;;;;;;;8.28;7.00;;;;;;;30.46;59.78;100541.88;1800774;79;21291;-48
2023/08/21 10:57:36;;;;;;;8.23;6.92;;;;;;;30.52;59.56;100537.24;1791864;79;22092;-51
2023/08/21 11:00:42;;;;;;;;;;;;;;;30.62;59.38;100535.70;1751816;80;21173;-50
2023/08/21 11:03:48;;;;;;;16.00;6.40;;;;;;;30.73;59.06;100535.00;1788450;78;20228;-51
2023/08/21 11:06:53;;;;;;;9.28;7.25;;;;;;;30.83;58.89;100532.03;1769537;80;21908;-52
2023/08/21 11:09:58;;;;;;;8.90;6.35;;;;;;;30.99;58.73;100526.98;1779580;78;21549;-53
2023/08/21 11:13:05;;;;;;;7.95;6.55;;;;;;;31.18;58.54;100539.11;1756866;80;21280;-52
2023/08/21 11:16:13;;;;;;;7.75;5.92;;;;;;;31.26;58.11;100527.10;1801466;79;21533;-52
2023/08/21 11:19:19;;;;;;;7.80;5.67;;;;;;;31.25;57.67;100526.84;1807578;79;21362;-51
2023/08/21 11:22:27;;;;;;;8.88;6.70;;;;;;;31.24;57.34;100529.42;1776158;80;21765;-53
2023/08/21 11:25:34;;;;;;;9.25;6.22;;;;;;;31.24;57.08;100528.01;1762914;80;21264;-54
2023/08/21 11:28:42;;;;;;;8.33;6.00;;;;;;;31.23;56.79;100527.72;1747217;81;21188;-54
2023/08/21 11:31:53;;;;;;;7.70;6.05;;;;;;;31.27;56.63;100533.05;1761014;79;21208;-52
2023/08/21 11:35:03;;;;;;;8.30;6.33;;;;;;;31.23;56.25;100529.13;1740764;80;21572;-53
2023/08/21 11:38:11;;;;;;;10.03;6.05;;;;;;;31.07;55.65;100529.97;1751410;80;21730;-54
2023/08/21 11:41:16;;;;;;;9.73;6.78;;;;;;;30.86;55.29;100540.50;1709354;82;21375;-52
2023/08/21 11:44:23;;;;;;;7.62;6.80;;;;;;;30.78;55.20;100536.94;1776418;80;21343;-53
2023/08/21 11:47:31;;;;;;;12.15;7.50;;;;;;;30.77;55.07;100538.06;1754111;80;21386;-56
2023/08/21 11:50:38;;;;;;;8.83;7.92;;;;;;;30.86;55.11;100534.84;1759364;79;21879;-55
2023/08/21 11:53:46;;;;;;;9.43;7.12;;;;;;;30.96;55.02;100525.62;1769815;79;21220;-56
2023/08/21 11:56:54;;;;;;;10.88;6.60;;;;;;;30.99;54.82;100525.56;1762942;79;21378;-56
2023/08/21 12:00:05;;;;;;;7.10;6.40;;;;;;;31.04;54.72;100529.73;1765318;80;21231;-55
2023/08/21 12:03:12;;;;;;;7.53;6.58;;;;;;;31.12;54.69;100519.98;1756461;80;21300;-54
2023/08/21 12:06:19;;;;;;;8.03;6.12;;;;;;;31.24;54.57;100519.52;1764431;79;21216;-56
2023/08/21 12:09:26;;;;;;;7.03;5.55;;;;;;;31.24;54.26;100516.09;1709068;82;21342;-55
2023/08/21 12:12:32;;;;;;;8.90;5.67;;;;;;;31.15;53.93;100519.37;1695688;83;21222;-56
2023/08/21 12:15:38;;;;;;;7.00;5.80;;;;;;;31.01;53.74;100521.30;1687394;83;21211;-54
2023/08/21 12:18:44;;;;;;;7.92;5.65;;;;;;;30.99;53.68;100510.01;1706116;82;21226;-54
2023/08/21 12:21:49;;;;;;;9.50;5.80;;;;;;;30.92;53.43;100509.58;1712577;82;21196;-56
2023/08/21 12:24:54;;;;;;;8.48;5.00;;;;;;;30.84;53.35;100507.44;1700296;82;21248;-56
2023/08/21 12:28:01;;;;;;;9.23;6.37;;;;;;;30.83;53.26;100505.17;1771243;80;21422;-54
2023/08/21 12:31:08;;;;;;;9.55;5.55;;;;;;;30.88;53.16;100498.59;1747085;80;21259;-56
2023/08/21 12:34:15;;;;;;;7.47;5.58;;;;;;;30.92;53.04;100502.50;1772184;79;21734;-55
2023/08/21 12:37:21;;;;;;;6.03;5.35;;;;;;;30.97;53.00;100499.00;1761881;80;21362;-54
2023/08/21 12:40:26;;;;;;;7.42;5.40;;;;;;;31.01;52.80;100497.82;1774728;80;21390;-56
2023/08/21 12:43:33;;;;;;;10.45;5.65;;;;;;;30.96;52.61;100493.66;1775740;80;21409;-52
2023/08/21 12:46:39;;;;;;;11.45;5.87;;;;;;;30.88;52.42;100500.00;1724088;82;21221;-56
2023/08/21 12:49:46;;;;;;;7.58;5.60;;;;;;;30.81;52.23;100493.32;1765921;80;21454;-56
2023/08/21 12:52:54;;;;;;;9.85;5.28;;;;;;;30.77;52.17;100492.27;1756968;80;21272;-55
2023/08/21 12:55:58;;;;;;;10.08;5.45;;;;;;;30.77;52.07;100488.59;1739987;82;21916;-55
2023/08/21 12:59:04;;;;;;;12.20;6.08;;;;;;;30.75;51.92;100479.56;1739689;81;21224;-52
2023/08/21 13:02:10;;;;;;;9.55;5.55;;;;;;;30.78;51.87;100481.21;1752966;80;21212;-52
2023/08/21 13:05:15;;;;;;;9.40;5.53;;;;;;;30.80;51.83;100490.80;1721777;82;21212;-51
2023/08/21 13:08:20;;;;;;;8.88;5.33;;;;;;;30.85;51.78;100487.90;1746971;80;21758;-54
2023/08/21 13:11:26;;;;;;;8.45;4.97;;;;;;;30.88;51.71;100488.69;1766463;80;21216;-51
2023/08/21 13:14:32;;;;;;;10.95;6.03;;;;;;;30.82;51.48;100482.86;1744216;81;21236;-51
2023/08/21 13:17:38;;;;;;;6.28;5.10;;;;;;;30.70;51.40;100478.22;1755877;80;21883;-52
2023/08/21 13:20:45;;;;;;;6.28;4.90;;;;;;;30.60;51.27;100485.69;1753831;80;21240;-53
2023/08/21 13:23:52;;;;;;;8.45;5.50;;;;;;;30.55;51.22;100477.87;1765842;80;21367;-51
2023/08/21 13:27:01;;;;;;;8.88;5.60;;;;;;;30.53;51.29;100476.77;1750909;81;21566;-53
2023/08/21 13:30:08;;;;;;;10.53;5.78;;;;;;;30.54;51.25;100474.20;1769406;80;21362;-53
2023/08/21 13:33:14;;;;;;;6.30;5.30;;;;;;;30.51;51.14;100473.95;1765922;80;21275;-52
2023/08/21 13:36:22;;;;;;;6.50;5.35;;;;;;;30.43;51.06;100475.48;1768944;78;21422;-52
2023/08/21 13:39:30;;;;;;;9.15;5.65;;;;;;;30.39;51.08;100477.26;1778643;80;21463;-52
2023/08/21 13:42:40;;;;;;;8.00;5.40;;;;;;;30.34;51.06;100474.50;1743225;81;21207;-51
2023/08/21 13:45:45;;;;;;;7.42;5.42;;;;;;;30.31;51.05;100468.05;1734166;82;21933;-52
2023/08/21 13:48:50;;;;;;;7.12;5.80;;;;;;;30.29;51.02;100470.33;1771659;80;21216;-52
2023/08/21 13:51:55;;;;;;;6.85;5.20;;;;;;;30.32;51.08;100469.72;1758464;80;21204;-50
2023/08/21 13:55:02;;;;;;;6.58;4.90;;;;;;;30.38;51.05;100476.97;1718719;82;21216;-53
2023/08/21 13:58:10;;;;;;;6.25;5.22;;;;;;;30.37;50.86;100480.10;1791229;79;21348;-55
2023/08/21 14:01:15;;;;;;;8.58;5.70;;;;;;;30.31;50.78;100467.19;1757115;79;21895;-54
2023/08/21 14:04:23;;;;;;;10.08;5.40;;;;;;;30.29;50.73;100475.98;1783931;79;21339;-53
2023/08/21 14:07:30;;;;;;;10.10;5.20;;;;;;;30.21;50.66;100466.77;1773638;80;21295;-53
2023/08/21 14:10:36;;;;;;;6.33;5.00;;;;;;;30.21;50.64;100463.09;1772362;80;21782;-53
2023/08/21 14:13:41;;;;;;;7.65;5.00;;;;;;;30.23;50.62;100461.66;1683128;82;21232;-54
2023/08/21 14:16:47;;;;;;;7.37;5.15;;;;;;;30.26;50.52;100467.26;1761912;81;21513;-53
2023/08/21 14:19:54;;;;;;;7.35;5.37;;;;;;;30.23;50.43;100463.07;1795713;80;21331;-53
2023/08/21 14:23:00;;;;;;;6.40;4.85;;;;;;;30.23;50.45;100460.25;1762028;80;21235;-53
2023/08/21 14:26:07;;;;;;;7.45;5.30;;;;;;;30.21;50.42;100462.52;1790924;79;21197;-52
2023/08/21 14:29:14;;;;;;;6.28;5.30;;;;;;;30.16;50.36;100452.67;1762959;80;21196;-55
2023/08/21 14:32:21;;;;;;;5.45;4.78;;;;;;;30.13;50.29;100452.42;1769987;80;21204;-55
2023/08/21 14:35:26;;;;;;;6.95;5.33;;;;;;;30.06;50.24;100461.30;1765519;80;21323;-55
2023/08/21 14:38:33;;;;;;;5.62;5.08;;;;;;;30.00;50.23;100460.25;1770078;80;21389;-55
2023/08/21 14:41:40;;;;;;;6.75;4.95;;;;;;;29.96;50.25;100461.42;1775732;80;21887;-55
2023/08/21 14:44:46;;;;;;;8.18;4.97;;;;;;;29.94;50.25;100456.64;1743656;81;21181;-55
2023/08/21 14:47:52;;;;;;;7.72;5.08;;;;;;;29.91;50.24;100454.98;1746312;82;21367;-54
2023/08/21 14:50:51;;;;;;;8.85;5.53;;;;;;;29.89;50.30;100456.69;1755221;80;21350;-55
2023/08/21 14:53:44;;;;;;;6.50;5.00;;;;;;;29.89;50.31;100460.92;1736441;82;21226;-55
2023/08/21 14:56:50;;;;;;;6.83;5.08;;;;;;;29.87;50.27;100456.17;1745375;82;21739;-54
2023/08/21 14:59:56;;;;;;;7.95;4.78;;;;;;;29.85;50.21;100458.45;1743247;82;22222;-54
2023/08/21 15:03:02;;;;;;;8.08;5.45;;;;;;;29.81;50.29;100468.64;1735990;82;21299;-54
2023/08/21 15:06:09;;;;;;;8.03;5.40;;;;;;;29.77;50.28;100459.67;1753505;80;21589;-55
2023/08/21 15:09:18;;;;;;;7.22;5.90;;;;;;;29.71;50.24;100458.91;1731538;82;21768;-54
2023/08/21 15:12:25;;;;;;;9.08;5.70;;;;;;;29.65;50.25;100457.29;1756239;80;21321;-53
2023/08/21 15:15:31;;;;;;;6.87;5.60;;;;;;;29.62;50.30;100462.65;1742951;81;21982;-57
2023/08/21 15:18:38;;;;;;;9.23;6.28;;;;;;;29.56;50.29;100467.49;1740029;82;21748;-55
2023/08/21 15:21:43;;;;;;;8.20;5.85;;;;;;;29.50;50.30;100465.88;1740492;82;21208;-55
2023/08/21 15:24:49;;;;;;;11.97;6.47;;;;;;;29.46;50.33;100470.44;1739320;82;21264;-55
2023/08/21 15:27:56;;;;;;;7.42;5.85;;;;;;;29.38;50.35;100469.67;1737166;82;21903;-55
2023/08/21 15:31:03;;;;;;;10.13;6.37;;;;;;;29.29;50.35;100469.20;1753720;81;21245;-55
2023/08/21 15:34:09;;;;;;;8.10;6.17;;;;;;;29.21;50.41;100480.54;1765490;80;21738;-53
2023/08/21 15:37:15;;;;;;;9.55;5.97;;;;;;;29.15;50.52;100481.17;1783092;79;21366;-56
2023/08/21 15:40:20;;;;;;;8.00;5.85;;;;;;;29.02;50.70;100491.67;1785878;79;21335;-53
2023/08/21 15:43:26;;;;;;;9.40;6.00;;;;;;;29.02;50.70;100491.67;1792823;79;21374;-55
2023/08/21 15:46:31;;;;;;;9.10;6.20;;;;;;;28.98;50.83;100496.23;1798979;78;21197;-54
2023/08/21 15:49:38;;;;;;;12.35;5.70;;;;;;;28.93;50.92;100501.05;1795416;79;21970;-56
2023/08/21 15:52:47;;;;;;;12.25;6.60;;;;;;;28.83;51.22;100513.80;1788610;79;21970;-55
2023/08/21 15:55:52;;;;;;;6.62;5.80;;;;;;;28.83;51.22;100513.80;1740464;82;21339;-54
2023/08/21 15:58:58;;;;;;;10.53;5.95;;;;;;;28.79;51.29;100509.34;1733268;81;21797;-56
2023/08/21 16:02:06;;;;;;;11.68;7.40;;;;;;;28.86;51.28;100511.84;1799708;79;21190;-56
2023/08/21 16:05:14;;;;;;;10.65;6.53;;;;;;;28.69;51.24;100505.73;1807883;78;21187;-56
2023/08/21 16:08:20;;;;;;;11.08;6.78;;;;;;;28.69;51.24;100505.73;1808095;78;21185;-56
2023/08/21 16:11:26;;;;;;;12.55;6.62;;;;;;;28.57;51.62;100510.34;1807879;78;22074;-56
2023/08/21 16:14:33;;;;;;;10.48;6.30;;;;;;;28.45;51.63;100510.34;1798742;79;21200;-56
2023/08/21 16:17:39;;;;;;;13.70;6.65;;;;;;;28.32;51.80;100513.82;1807880;79;21200;-56
2023/08/21 16:20:46;;;;;;;9.38;5.90;;;;;;;28.24;51.95;100521.46;1800046;79;21346;-56
2023/08/21 16:23:55;;;;;;;10.08;6.28;;;;;;;28.14;52.08;100523.75;1808769;79;21562;-55
2023/08/21 16:27:02;;;;;;;10.15;6.58;;;;;;;28.06;52.17;100527.72;1800199;79;21196;-56
2023/08/21 16:30:09;;;;;;;10.63;6.42;;;;;;;28.05;52.37;100531.09;1785417;79;21745;-57
2023/08/21 16:33:14;;;;;;;9.53;6.90;;;;;;;28.00;52.45;100540.98;1780305;79;21330;-55
2023/08/21 16:36:21;;;;;;;13.45;6.25;;;;;;;27.89;52.55;100542.70;1793029;79;21430;-56
2023/08/21 16:39:26;;;;;;;11.43;5.58;;;;;;;27.75;52.65;100538.17;1791910;79;21430;-56
2023/08/21 16:42:32;;;;;;;9.10;6.40;;;;;;;27.61;52.75;100538.48;1760474;81;21833;-56
2023/08/21 16:45:39;;;;;;;10.05;6.08;;;;;;;27.46;52.87;100537.94;1763559;81;21200;-57
2023/08/21 16:48:46;;;;;;;9.95;6.10;;;;;;;27.33;53.03;100551.19;1774996;80;21689;-57
2023/08/21 16:51:52;;;;;;;9.00;6.33;;;;;;;27.20;53.13;100550.31;1763621;81;21181;-56
2023/08/21 16:54:58;;;;;;;11.93;6.45;;;;;;;27.07;53.25;100548.59;1759819;80;21184;-59
2023/08/21 16:58:06;;;;;;;10.50;6.15;;;;;;;26.95;53.40;100550.30;1777632;80;21239;-56
2023/08/21 17:01:11;;;;;;;9.65;6.30;;;;;;;26.82;53.51;100551.38;1759631;79;21370;-56
2023/08/21 17:04:19;;;;;;;8.85;5.95;;;;;;;26.69;53.64;100562.59;1760301;79;21654;-56
2023/08/21 17:07:25;;;;;;;10.50;6.03;;;;;;;26.58;53.78;100560.84;1763652;81;21223;-57
2023/08/21 17:10:32;;;;;;;6.22;5.33;;;;;;;26.46;53.90;100557.45;1788243;79;21369;-56
2023/08/21 17:13:39;;;;;;;8.83;5.12;;;;;;;26.35;54.02;100566.37;1739758;81;21200;-56
2023/08/21 17:16:46;;;;;;;7.45;5.70;;;;;;;26.23;54.14;100565.77;1731534;81;21252;-56
2023/08/21 17:19:52;;;;;;;11.80;5.95;;;;;;;26.12;54.31;100571.59;1749489;80;21492;-56
2023/08/21 17:22:58;;;;;;;7.90;5.97;;;;;;;26.03;54.52;100577.45;1718472;80;21569;-55
2023/08/21 17:26:02;;;;;;;10.55;6.67;;;;;;;25.92;54.66;100571.47;1749817;80;21579;-56
2023/08/21 17:29:10;;;;;;;11.03;7.03;;;;;;;25.79;54.83;100567.19;1759462;79;21546;-56
2023/08/21 17:32:21;;;;;;;10.28;6.85;;;;;;;25.70;55.04;100577.23;1761370;79;21745;-56
2023/08/21 17:35:22;;;;;;;13.00;9.25;;;;;;;25.61;55.24;100569.59;1752579;81;21828;-57
2023/08/21 17:38:28;;;;;;;14.50;9.65;;;;;;;25.51;55.40;100575.11;1729484;82;21287;-56
2023/08/21 17:41:36;;;;;;;13.43;8.28;;;;;;;25.37;55.55;100578.91;1767964;79;21172;-56
2023/08/21 17:44:43;;;;;;;11.83;8.25;;;;;;;25.26;55.73;100582.71;1755208;80;21189;-56
2023/08/21 17:47:49;;;;;;;10.30;8.58;;;;;;;25.13;55.91;100579.52;1780260;78;21465;-55
2023/08/21 17:50:55;;;;;;;12.07;8.95;;;;;;;25.01;56.09;100579.13;1773611;78;21790;-56
2023/08/21 17:54:03;;;;;;;10.55;8.50;;;;;;;24.87;56.27;100582.08;1810484;79;21381;-56